Disclaimer

Please do not use the information listed here in-flight or in-navigation, as they are not provided to us by the airports but are provided by volunteers, so they might be outdated.

Search


Regions


Airport information page

Radio informations:
Tower (TWR) - 118.1 MHz
Ground (GND) - 121.9 MHz
Approach (APP) - 119.9 MHz

Airport informations:
Latitude: 19° 47' 47.11" S
Longitude: 034° 54' 27.20" E
Elevation: 33 feet - 10 meters
Operating hours: Remarks
Operating agency: Civil government, landing fees and diplomatic clearance may be required
Timezone: UTC+2
Fuel: Jet A1, without icing nhibitor.

100/130 octane gasoline, leaded, MIL-L-5572F (GREEN)

Runway information:
06/24 - 3018 x 148 feet< - >920 x 45 meters
12/30 - 7874 x 148 feet< - >2400 x 45 meters
17/35 - 5660 x 148 feet< - >1725 x 45 meters

Recent METARs:
FQBR 130400Z 23008KT 9999 SCT018 24/16 Q1017
FQBR 130400Z 23008KT 9999 SCT018 24/16 Q1017
FQBR 130400Z 23008KT 9999 SCT018 24/16 Q1017

Airport on the map: